OOCL Oakland — 3EKJ6 — position and weather

sailwx.info

Track history (hours):
 
Tides and Currents Weather Stations Pressure Air Temp Water Temp Dewpoint Dewpoint Depression Visibility Wind Speed Wind Dir Waves Ship Positions

OOCL Oakland

Last reported at 2015-Jul-26 22:33 UTC. Time now 2015-Aug-04 03:25 UTC.
Position S 26°42' E 153°11'.
Warning: this ship's position is 8 days out of date.

Length 280 m; draft 11.6 m.

Type: Ship. MMSI: 372703235.

Date/timePositionNaut miles runAvg speedWind from/ knotsBaromVisibWave heightAir tempDewpointWater temp
2015-Jul-26 22:33S 26°42' E 153°11'1212.1
2015-Jul-26 21:34S 26°54' E 153°11'1716.7
2015-Jul-26 20:33S 27°08' E 153°21'1414.3
2015-Jul-26 19:33S 27°20' E 153°12'3 2.8
2015-Jul-26 18:33S 27°22' E 153°10'0 0.1
2015-Jul-26 17:33S 27°22' E 153°10'0 0.1
2015-Jul-26 16:33S 27°22' E 153°10'0 0.1
2015-Jul-26 15:33S 27°22' E 153°10'0 0.1
2015-Jul-26 14:33S 27°22' E 153°10'0 0.1
2015-Jul-26 13:33S 27°22' E 153°10'0 0.1
2015-Jul-26 12:33S 27°22' E 153°10'0 0.0
2015-Jul-26 05:33S 27°22' E 153°10'0 0.1
2015-Jul-26 04:30S 27°22' E 153°10'0 0.1
2015-Jul-26 03:33S 27°22' E 153°10'0 0.1
2015-Jul-26 02:33S 27°22' E 153°10'0 0.0
2015-Jul-26 01:33S 27°22' E 153°10'0 0.0
2015-Jul-26 00:33S 27°22' E 153°10'0 0.0
2015-Jul-25 23:33S 27°22' E 153°10'0 0.0
2015-Jul-25 22:33S 27°22' E 153°10'0 0.0
2015-Jul-25 21:33S 27°22' E 153°10'0 0.1
2015-Jul-25 20:33S 27°22' E 153°10'6 5.7
2015-Jul-25 19:33S 27°18' E 153°13'1212.1
2015-Jul-25 18:34S 27°07' E 153°21'1413.9
2015-Jul-25 17:33S 26°56' E 153°12'1211.7
2015-Jul-25 16:33S 26°44' E 153°12'8 8.1
2015-Jul-25 15:33S 26°47' E 153°20'1717.4
2015-Jul-25 14:33S 26°58' E 153°35'1716.7
2015-Jul-25 13:32S 27°14' E 153°40'1716.9
2015-Jul-25 12:33S 27°31' E 153°44'1716.9
2015-Jul-25 11:33S 27°48' E 153°46'1716.7
2015-Jul-25 10:33S 28°04' E 153°48'26517.6
2015-Jul-24 19:33S 32°23' E 152°44'1918.7
2015-Jul-24 18:33S 32°41' E 152°37'1918.8
2015-Jul-24 17:33S 32°58' E 152°28'1919.0
2015-Jul-24 16:33S 33°16' E 152°20'26518.9
2015-Jul-24 02:33S 37°22' E 150°19'1818.6
2015-Jul-24 01:33S 37°38' E 150°08'1919.2
2015-Jul-24 00:33S 37°50' E 149°49'1919.7
2015-Jul-23 23:33S 38°02' E 149°29'2219.2
2015-Jul-23 22:24S 38°15' E 149°07'1618.7
2015-Jul-23 21:34S 38°25' E 148°51'1918.6
2015-Jul-23 20:33S 38°37' E 148°33'1918.6
2015-Jul-23 19:33S 38°48' E 148°13'1918.7
2015-Jul-23 18:33S 38°54' E 147°51'1818.5
2015-Jul-23 17:33S 39°01' E 147°28'1818.3
2015-Jul-23 16:33S 39°08' E 147°07'1818.0
2015-Jul-23 15:33S 39°14' E 146°45'1818.1
2015-Jul-23 14:33S 39°17' E 146°22'1818.0
2015-Jul-23 13:33S 39°10' E 146°00'1918.8
2015-Jul-23 12:33S 39°00' E 145°40'1918.6
2015-Jul-23 11:33S 38°50' E 145°20'16 0.4
2015-Jul-21 13:31S 38°57' E 145°39'1920.0
2015-Jul-21 12:33S 39°06' E 146°00'1918.8
2015-Jul-21 11:33S 39°11' E 146°24'2020.1
2015-Jul-21 10:33S 39°05' E 146°48'2019.8
2015-Jul-21 09:33S 38°58' E 147°13'1918.7
2015-Jul-21 08:33S 38°52' E 147°36'1818.4
2015-Jul-21 07:33S 38°47' E 147°58'2518.0
2015-Jul-21 06:11S 38°34' E 148°26'1319.6
2015-Jul-21 05:31S 38°26' E 148°39'1919.7
2015-Jul-21 04:33S 38°16' E 148°58'2019.7
2015-Jul-21 03:33S 38°04' E 149°19'2019.5
2015-Jul-21 02:33S 37°54' E 149°40'2120.2
2015-Jul-21 01:33S 37°42' E 150°01'2020.1
2015-Jul-21 00:33S 37°26' E 150°15'213 6.3
2015-Jul-19 14:32S 33°58' E 151°13'72 2.0
2015-Jul-18 02:33S 33°05' E 152°11'1111.2
2015-Jul-18 01:33S 32°56' E 152°19'1312.6
2015-Jul-18 00:33S 32°46' E 152°27'1312.5
2015-Jul-17 23:33S 32°36' E 152°37'1312.8
2015-Jul-17 22:33S 32°25' E 152°44'  
Track history (hours):
 
Tides and Currents Weather Stations Pressure Air Temp Water Temp Dewpoint Dewpoint Depression Visibility Wind Speed Wind Dir Waves Ship Positions

OOCL Oakland

Last reported at 2015-Jul-26 22:33 UTC. Time now 2015-Aug-04 03:25 UTC.
Position S 26°42' E 153°11'.
Warning: this ship's position is 8 days out of date.

Length 280 m; draft 11.6 m.

Type: Ship. MMSI: 372703235.

Date/timePositionNaut miles runAvg speedWind from/ knotsBaromVisibWave heightAir tempDewpointWater temp
2015-Jul-26 22:33S 26°42' E 153°11'1212.1
2015-Jul-26 21:34S 26°54' E 153°11'1716.7
2015-Jul-26 20:33S 27°08' E 153°21'1414.3
2015-Jul-26 19:33S 27°20' E 153°12'3 2.8
2015-Jul-26 18:33S 27°22' E 153°10'0 0.1
2015-Jul-26 17:33S 27°22' E 153°10'0 0.1
2015-Jul-26 16:33S 27°22' E 153°10'0 0.1
2015-Jul-26 15:33S 27°22' E 153°10'0 0.1
2015-Jul-26 14:33S 27°22' E 153°10'0 0.1
2015-Jul-26 13:33S 27°22' E 153°10'0 0.1
2015-Jul-26 12:33S 27°22' E 153°10'0 0.0
2015-Jul-26 05:33S 27°22' E 153°10'0 0.1
2015-Jul-26 04:30S 27°22' E 153°10'0 0.1
2015-Jul-26 03:33S 27°22' E 153°10'0 0.1
2015-Jul-26 02:33S 27°22' E 153°10'0 0.0
2015-Jul-26 01:33S 27°22' E 153°10'0 0.0
2015-Jul-26 00:33S 27°22' E 153°10'0 0.0
2015-Jul-25 23:33S 27°22' E 153°10'0 0.0
2015-Jul-25 22:33S 27°22' E 153°10'0 0.0
2015-Jul-25 21:33S 27°22' E 153°10'0 0.1
2015-Jul-25 20:33S 27°22' E 153°10'6 5.7
2015-Jul-25 19:33S 27°18' E 153°13'1212.1
2015-Jul-25 18:34S 27°07' E 153°21'1413.9
2015-Jul-25 17:33S 26°56' E 153°12'1211.7
2015-Jul-25 16:33S 26°44' E 153°12'8 8.1
2015-Jul-25 15:33S 26°47' E 153°20'1717.4
2015-Jul-25 14:33S 26°58' E 153°35'1716.7
2015-Jul-25 13:32S 27°14' E 153°40'1716.9
2015-Jul-25 12:33S 27°31' E 153°44'1716.9
2015-Jul-25 11:33S 27°48' E 153°46'1716.7
2015-Jul-25 10:33S 28°04' E 153°48'26517.6
2015-Jul-24 19:33S 32°23' E 152°44'1918.7
2015-Jul-24 18:33S 32°41' E 152°37'1918.8
2015-Jul-24 17:33S 32°58' E 152°28'1919.0
2015-Jul-24 16:33S 33°16' E 152°20'26518.9
2015-Jul-24 02:33S 37°22' E 150°19'1818.6
2015-Jul-24 01:33S 37°38' E 150°08'1919.2
2015-Jul-24 00:33S 37°50' E 149°49'1919.7
2015-Jul-23 23:33S 38°02' E 149°29'2219.2
2015-Jul-23 22:24S 38°15' E 149°07'1618.7
2015-Jul-23 21:34S 38°25' E 148°51'1918.6
2015-Jul-23 20:33S 38°37' E 148°33'1918.6
2015-Jul-23 19:33S 38°48' E 148°13'1918.7
2015-Jul-23 18:33S 38°54' E 147°51'1818.5
2015-Jul-23 17:33S 39°01' E 147°28'1818.3
2015-Jul-23 16:33S 39°08' E 147°07'1818.0
2015-Jul-23 15:33S 39°14' E 146°45'1818.1
2015-Jul-23 14:33S 39°17' E 146°22'1818.0
2015-Jul-23 13:33S 39°10' E 146°00'1918.8
2015-Jul-23 12:33S 39°00' E 145°40'1918.6
2015-Jul-23 11:33S 38°50' E 145°20'16 0.4
2015-Jul-21 13:31S 38°57' E 145°39'1920.0
2015-Jul-21 12:33S 39°06' E 146°00'1918.8
2015-Jul-21 11:33S 39°11' E 146°24'2020.1
2015-Jul-21 10:33S 39°05' E 146°48'2019.8
2015-Jul-21 09:33S 38°58' E 147°13'1918.7
2015-Jul-21 08:33S 38°52' E 147°36'1818.4
2015-Jul-21 07:33S 38°47' E 147°58'2518.0
2015-Jul-21 06:11S 38°34' E 148°26'1319.6
2015-Jul-21 05:31S 38°26' E 148°39'1919.7
2015-Jul-21 04:33S 38°16' E 148°58'2019.7
2015-Jul-21 03:33S 38°04' E 149°19'2019.5
2015-Jul-21 02:33S 37°54' E 149°40'2120.2
2015-Jul-21 01:33S 37°42' E 150°01'2020.1
2015-Jul-21 00:33S 37°26' E 150°15'213 6.3
2015-Jul-19 14:32S 33°58' E 151°13'72 2.0
2015-Jul-18 02:33S 33°05' E 152°11'1111.2
2015-Jul-18 01:33S 32°56' E 152°19'1312.6
2015-Jul-18 00:33S 32°46' E 152°27'1312.5
2015-Jul-17 23:33S 32°36' E 152°37'1312.8
2015-Jul-17 22:33S 32°25' E 152°44'  

Dump ship's entire track history